sensor_id;sensor_type;location;lat;lon;timestamp;pressure;altitude;pressure_sealevel;temperature;humidity
21574;BME280;10948;48.706;9.258;2023-02-17T00:00:58;98667.31;;;9.11;97.10
21574;BME280;10948;48.706;9.258;2023-02-17T00:03:23;98665.72;;;8.86;95.16
21574;BME280;10948;48.706;9.258;2023-02-17T00:05:48;98666.88;;;9.00;95.66
21574;BME280;10948;48.706;9.258;2023-02-17T00:08:14;98678.09;;;9.22;94.38
21574;BME280;10948;48.706;9.258;2023-02-17T00:10:39;98670.97;;;8.84;96.04
21574;BME280;10948;48.706;9.258;2023-02-17T00:13:04;98671.44;;;8.72;96.54
21574;BME280;10948;48.706;9.258;2023-02-17T00:15:30;98669.75;;;8.71;97.82
21574;BME280;10948;48.706;9.258;2023-02-17T00:17:55;98666.97;;;8.76;98.29
21574;BME280;10948;48.706;9.258;2023-02-17T00:20:21;98667.84;;;8.98;97.93
21574;BME280;10948;48.706;9.258;2023-02-17T00:22:46;98659.47;;;8.68;98.13
21574;BME280;10948;48.706;9.258;2023-02-17T00:25:11;98657.97;;;8.40;100.00
21574;BME280;10948;48.706;9.258;2023-02-17T00:27:36;98662.09;;;8.45;100.00
21574;BME280;10948;48.706;9.258;2023-02-17T00:30:01;98655.97;;;8.69;100.00
21574;BME280;10948;48.706;9.258;2023-02-17T00:32:27;98659.28;;;8.51;100.00
21574;BME280;10948;48.706;9.258;2023-02-17T00:34:52;98658.69;;;8.43;100.00
21574;BME280;10948;48.706;9.258;2023-02-17T00:37:20;98651.78;;;8.44;100.00
21574;BME280;10948;48.706;9.258;2023-02-17T00:39:45;98656.63;;;8.30;100.00
21574;BME280;10948;48.706;9.258;2023-02-17T00:42:11;98652.41;;;8.27;100.00
21574;BME280;10948;48.706;9.258;2023-02-17T00:44:36;98650.72;;;8.26;100.00
21574;BME280;10948;48.706;9.258;2023-02-17T00:47:01;98658.81;;;8.40;100.00
21574;BME280;10948;48.706;9.258;2023-02-17T00:49:26;98662.97;;;8.67;100.00
21574;BME280;10948;48.706;9.258;2023-02-17T00:51:51;98644.13;;;8.62;100.00
21574;BME280;10948;48.706;9.258;2023-02-17T00:54:17;98651.00;;;8.63;100.00
21574;BME280;10948;48.706;9.258;2023-02-17T00:56:42;98649.22;;;8.42;100.00
21574;BME280;10948;48.706;9.258;2023-02-17T00:59:08;98647.59;;;8.40;100.00
21574;BME280;10948;48.706;9.258;2023-02-17T01:01:34;98663.34;;;8.58;100.00
21574;BME280;10948;48.706;9.258;2023-02-17T01:03:59;98659.09;;;8.56;100.00
21574;BME280;10948;48.706;9.258;2023-02-17T01:06:25;98657.38;;;8.33;100.00
21574;BME280;10948;48.706;9.258;2023-02-17T01:08:51;98649.63;;;8.32;100.00
21574;BME280;10948;48.706;9.258;2023-02-17T01:11:17;98649.63;;;8.32;100.00
21574;BME280;10948;48.706;9.258;2023-02-17T01:13:43;98649.66;;;8.07;100.00
21574;BME280;10948;48.706;9.258;2023-02-17T01:16:14;98658.56;;;8.00;100.00
21574;BME280;10948;48.706;9.258;2023-02-17T01:18:40;98651.03;;;7.93;100.00
21574;BME280;10948;48.706;9.258;2023-02-17T01:21:05;98647.03;;;7.84;100.00
21574;BME280;10948;48.706;9.258;2023-02-17T01:23:38;98641.97;;;7.81;100.00
21574;BME280;10948;48.706;9.258;2023-02-17T01:26:04;98632.00;;;7.69;100.00
21574;BME280;10948;48.706;9.258;2023-02-17T01:28:29;98631.28;;;7.66;100.00
21574;BME280;10948;48.706;9.258;2023-02-17T01:30:55;98628.53;;;7.70;100.00
21574;BME280;10948;48.706;9.258;2023-02-17T01:33:20;98617.31;;;7.94;100.00
21574;BME280;10948;48.706;9.258;2023-02-17T01:35:45;98625.84;;;7.96;100.00
21574;BME280;10948;48.706;9.258;2023-02-17T01:38:11;98617.50;;;7.88;100.00
21574;BME280;10948;48.706;9.258;2023-02-17T01:40:36;98609.88;;;7.85;100.00
21574;BME280;10948;48.706;9.258;2023-02-17T01:43:01;98612.63;;;7.81;100.00
21574;BME280;10948;48.706;9.258;2023-02-17T01:45:37;98614.97;;;7.87;100.00
21574;BME280;10948;48.706;9.258;2023-02-17T01:48:09;98612.97;;;7.95;100.00
21574;BME280;10948;48.706;9.258;2023-02-17T01:50:47;98604.47;;;7.91;100.00
21574;BME280;10948;48.706;9.258;2023-02-17T01:53:13;98601.50;;;8.02;100.00
21574;BME280;10948;48.706;9.258;2023-02-17T01:55:42;98600.41;;;7.84;100.00
21574;BME280;10948;48.706;9.258;2023-02-17T01:58:09;98602.19;;;7.82;100.00
21574;BME280;10948;48.706;9.258;2023-02-17T02:00:35;98600.50;;;7.81;100.00
21574;BME280;10948;48.706;9.258;2023-02-17T02:03:01;98598.47;;;7.89;100.00
21574;BME280;10948;48.706;9.258;2023-02-17T02:05:28;98599.34;;;7.90;100.00
21574;BME280;10948;48.706;9.258;2023-02-17T02:07:53;98588.44;;;8.03;100.00
21574;BME280;10948;48.706;9.258;2023-02-17T02:10:19;98597.88;;;7.83;100.00
21574;BME280;10948;48.706;9.258;2023-02-17T02:12:44;98595.34;;;8.04;100.00
21574;BME280;10948;48.706;9.258;2023-02-17T02:15:14;98585.75;;;7.59;100.00
21574;BME280;10948;48.706;9.258;2023-02-17T02:20:31;98584.06;;;7.82;100.00
21574;BME280;10948;48.706;9.258;2023-02-17T02:40:46;98585.38;;;7.69;100.00
21574;BME280;10948;48.706;9.258;2023-02-17T02:43:13;98586.03;;;7.76;100.00
21574;BME280;10948;48.706;9.258;2023-02-17T02:45:39;98581.81;;;7.73;100.00
21574;BME280;10948;48.706;9.258;2023-02-17T02:48:05;98574.41;;;7.63;100.00
21574;BME280;10948;48.706;9.258;2023-02-17T02:55:53;98578.66;;;7.65;100.00
21574;BME280;10948;48.706;9.258;2023-02-17T02:58:31;98581.69;;;7.52;100.00
21574;BME280;10948;48.706;9.258;2023-02-17T03:01:03;98578.72;;;7.62;100.00
21574;BME280;10948;48.706;9.258;2023-02-17T03:03:34;98572.94;;;7.56;100.00
21574;BME280;10948;48.706;9.258;2023-02-17T03:06:06;98559.59;;;7.66;100.00
21574;BME280;10948;48.706;9.258;2023-02-17T03:10:58;98565.09;;;7.57;100.00
21574;BME280;10948;48.706;9.258;2023-02-17T03:13:24;98559.94;;;7.80;100.00
21574;BME280;10948;48.706;9.258;2023-02-17T03:15:50;98554.81;;;7.79;100.00
21574;BME280;10948;48.706;9.258;2023-02-17T03:18:15;98557.63;;;8.19;100.00
21574;BME280;10948;48.706;9.258;2023-02-17T03:20:50;98550.44;;;8.04;100.00
21574;BME280;10948;48.706;9.258;2023-02-17T03:23:17;98556.34;;;8.07;100.00
21574;BME280;10948;48.706;9.258;2023-02-17T03:25:42;98548.34;;;7.90;100.00
21574;BME280;10948;48.706;9.258;2023-02-17T03:28:09;98546.00;;;7.84;100.00
21574;BME280;10948;48.706;9.258;2023-02-17T03:30:34;98542.09;;;7.96;100.00
21574;BME280;10948;48.706;9.258;2023-02-17T03:32:59;98548.47;;;7.87;100.00
21574;BME280;10948;48.706;9.258;2023-02-17T03:35:24;98538.44;;;7.78;100.00
21574;BME280;10948;48.706;9.258;2023-02-17T03:37:50;98541.47;;;7.89;100.00
21574;BME280;10948;48.706;9.258;2023-02-17T03:40:15;98546.19;;;8.01;100.00
21574;BME280;10948;48.706;9.258;2023-02-17T03:42:40;98556.34;;;8.07;100.00
21574;BME280;10948;48.706;9.258;2023-02-17T03:45:05;98555.91;;;8.19;100.00
21574;BME280;10948;48.706;9.258;2023-02-17T03:47:31;98554.09;;;7.98;100.00
21574;BME280;10948;48.706;9.258;2023-02-17T03:49:56;98553.81;;;7.83;100.00
21574;BME280;10948;48.706;9.258;2023-02-17T03:52:21;98560.50;;;7.88;100.00
21574;BME280;10948;48.706;9.258;2023-02-17T03:54:46;98556.69;;;7.98;100.00
21574;BME280;10948;48.706;9.258;2023-02-17T03:57:12;98567.06;;;7.98;100.00
21574;BME280;10948;48.706;9.258;2023-02-17T03:59:37;98557.69;;;7.94;100.00
21574;BME280;10948;48.706;9.258;2023-02-17T04:02:02;98566.66;;;7.86;100.00
21574;BME280;10948;48.706;9.258;2023-02-17T04:04:28;98567.06;;;7.98;100.00
21574;BME280;10948;48.706;9.258;2023-02-17T04:06:53;98559.47;;;7.69;100.00
21574;BME280;10948;48.706;9.258;2023-02-17T04:09:18;98554.16;;;7.49;100.00
21574;BME280;10948;48.706;9.258;2023-02-17T04:11:43;98561.50;;;7.61;100.00
21574;BME280;10948;48.706;9.258;2023-02-17T04:14:09;98555.06;;;7.48;100.00
21574;BME280;10948;48.706;9.258;2023-02-17T04:16:34;98552.31;;;7.53;100.00
21574;BME280;10948;48.706;9.258;2023-02-17T04:18:59;98556.44;;;7.58;100.00
21574;BME280;10948;48.706;9.258;2023-02-17T04:21:24;98562.66;;;7.53;100.00
21574;BME280;10948;48.706;9.258;2023-02-17T04:23:50;98566.69;;;7.61;100.00
21574;BME280;10948;48.706;9.258;2023-02-17T04:26:15;98561.41;;;7.64;100.00
21574;BME280;10948;48.706;9.258;2023-02-17T04:28:41;98571.66;;;7.67;100.00
21574;BME280;10948;48.706;9.258;2023-02-17T04:31:06;98580.31;;;7.66;100.00
21574;BME280;10948;48.706;9.258;2023-02-17T04:33:32;98576.44;;;7.55;100.00
21574;BME280;10948;48.706;9.258;2023-02-17T04:35:57;98568.78;;;7.50;100.00
21574;BME280;10948;48.706;9.258;2023-02-17T04:38:26;98573.34;;;7.68;100.00
21574;BME280;10948;48.706;9.258;2023-02-17T04:40:52;98564.88;;;7.63;100.00
21574;BME280;10948;48.706;9.258;2023-02-17T04:43:17;98566.00;;;7.56;100.00
21574;BME280;10948;48.706;9.258;2023-02-17T04:45:42;98565.13;;;7.80;100.00
21574;BME280;10948;48.706;9.258;2023-02-17T04:48:08;98564.22;;;7.81;100.00
21574;BME280;10948;48.706;9.258;2023-02-17T04:50:33;98564.44;;;7.75;100.00
21574;BME280;10948;48.706;9.258;2023-02-17T04:52:58;98557.66;;;7.96;100.00
21574;BME280;10948;48.706;9.258;2023-02-17T04:55:23;98557.44;;;8.02;100.00
21574;BME280;10948;48.706;9.258;2023-02-17T04:57:49;98553.31;;;8.19;100.00
21574;BME280;10948;48.706;9.258;2023-02-17T05:00:14;98549.34;;;8.09;100.00
21574;BME280;10948;48.706;9.258;2023-02-17T05:02:39;98548.81;;;8.24;100.00
21574;BME280;10948;48.706;9.258;2023-02-17T05:05:04;98540.66;;;8.10;100.00
21574;BME280;10948;48.706;9.258;2023-02-17T05:07:30;98533.94;;;8.06;100.00
21574;BME280;10948;48.706;9.258;2023-02-17T05:09:55;98539.91;;;8.31;100.00
21574;BME280;10948;48.706;9.258;2023-02-17T05:12:20;98544.13;;;8.11;100.00
21574;BME280;10948;48.706;9.258;2023-02-17T05:14:45;98537.66;;;7.99;100.00
21574;BME280;10948;48.706;9.258;2023-02-17T05:17:11;98540.13;;;7.79;100.00
21574;BME280;10948;48.706;9.258;2023-02-17T05:19:36;98542.84;;;7.99;100.00
21574;BME280;10948;48.706;9.258;2023-02-17T05:22:01;98541.69;;;7.60;100.00
21574;BME280;10948;48.706;9.258;2023-02-17T05:24:26;98540.91;;;7.58;100.00
21574;BME280;10948;48.706;9.258;2023-02-17T05:26:51;98537.50;;;7.56;100.00
21574;BME280;10948;48.706;9.258;2023-02-17T05:29:17;98535.38;;;7.67;100.00
21574;BME280;10948;48.706;9.258;2023-02-17T05:31:42;98533.78;;;7.63;100.00
21574;BME280;10948;48.706;9.258;2023-02-17T05:34:07;98541.00;;;7.55;100.00
21574;BME280;10948;48.706;9.258;2023-02-17T05:36:32;98543.88;;;7.48;100.00
21574;BME280;10948;48.706;9.258;2023-02-17T05:38:57;98540.34;;;7.73;100.00
21574;BME280;10948;48.706;9.258;2023-02-17T05:41:23;98545.88;;;7.64;100.00
21574;BME280;10948;48.706;9.258;2023-02-17T05:43:48;98543.63;;;7.54;100.00
21574;BME280;10948;48.706;9.258;2023-02-17T05:46:13;98543.84;;;7.72;100.00
21574;BME280;10948;48.706;9.258;2023-02-17T05:48:39;98550.94;;;7.67;100.00
21574;BME280;10948;48.706;9.258;2023-02-17T05:51:04;98542.25;;;7.68;100.00
21574;BME280;10948;48.706;9.258;2023-02-17T05:53:29;98547.34;;;7.71;100.00
21574;BME280;10948;48.706;9.258;2023-02-17T05:55:55;98560.22;;;7.73;100.00
21574;BME280;10948;48.706;9.258;2023-02-17T05:58:20;98554.53;;;7.63;100.00
21574;BME280;10948;48.706;9.258;2023-02-17T06:00:46;98561.91;;;7.74;100.00
21574;BME280;10948;48.706;9.258;2023-02-17T06:03:11;98560.56;;;7.87;100.00
21574;BME280;10948;48.706;9.258;2023-02-17T06:05:37;98567.78;;;8.02;100.00
21574;BME280;10948;48.706;9.258;2023-02-17T06:08:02;98566.56;;;7.89;100.00
21574;BME280;10948;48.706;9.258;2023-02-17T06:10:27;98566.72;;;8.07;100.00
21574;BME280;10948;48.706;9.258;2023-02-17T06:12:52;98562.88;;;8.17;100.00
21574;BME280;10948;48.706;9.258;2023-02-17T06:15:18;98567.84;;;8.23;100.00
21574;BME280;10948;48.706;9.258;2023-02-17T06:17:43;98578.22;;;8.23;100.00
21574;BME280;10948;48.706;9.258;2023-02-17T06:20:08;98568.25;;;8.36;100.00
21574;BME280;10948;48.706;9.258;2023-02-17T06:22:34;98572.34;;;8.41;100.00
21574;BME280;10948;48.706;9.258;2023-02-17T06:25:01;98574.28;;;8.58;100.00
21574;BME280;10948;48.706;9.258;2023-02-17T06:27:26;98571.50;;;8.62;100.00
21574;BME280;10948;48.706;9.258;2023-02-17T06:29:51;98576.94;;;8.56;100.00
21574;BME280;10948;48.706;9.258;2023-02-17T06:32:16;98590.06;;;8.52;100.00
21574;BME280;10948;48.706;9.258;2023-02-17T06:34:42;98582.13;;;8.56;100.00
21574;BME280;10948;48.706;9.258;2023-02-17T06:37:07;98584.59;;;8.59;100.00
21574;BME280;10948;48.706;9.258;2023-02-17T06:39:32;98591.25;;;8.66;100.00
21574;BME280;10948;48.706;9.258;2023-02-17T06:41:58;98585.00;;;8.70;100.00
21574;BME280;10948;48.706;9.258;2023-02-17T06:44:23;98598.88;;;8.69;100.00
21574;BME280;10948;48.706;9.258;2023-02-17T06:46:49;98595.28;;;8.73;100.00
21574;BME280;10948;48.706;9.258;2023-02-17T06:49:14;98599.63;;;8.73;100.00
21574;BME280;10948;48.706;9.258;2023-02-17T06:51:40;98597.22;;;8.90;100.00
21574;BME280;10948;48.706;9.258;2023-02-17T06:54:05;98601.78;;;8.83;100.00
21574;BME280;10948;48.706;9.258;2023-02-17T06:56:30;98599.75;;;8.91;100.00
21574;BME280;10948;48.706;9.258;2023-02-17T06:58:55;98592.75;;;8.93;100.00
21574;BME280;10948;48.706;9.258;2023-02-17T07:01:24;98597.06;;;8.93;100.00
21574;BME280;10948;48.706;9.258;2023-02-17T07:03:51;98603.31;;;9.10;100.00
21574;BME280;10948;48.706;9.258;2023-02-17T07:06:16;98605.91;;;9.10;100.00
21574;BME280;10948;48.706;9.258;2023-02-17T07:08:42;98610.56;;;9.22;100.00
21574;BME280;10948;48.706;9.258;2023-02-17T07:11:08;98610.56;;;9.22;100.00
21574;BME280;10948;48.706;9.258;2023-02-17T07:13:34;98616.47;;;9.26;100.00
21574;BME280;10948;48.706;9.258;2023-02-17T07:15:59;98609.34;;;9.31;100.00
21574;BME280;10948;48.706;9.258;2023-02-17T07:18:24;98608.13;;;9.39;100.00
21574;BME280;10948;48.706;9.258;2023-02-17T07:20:50;98606.19;;;9.44;100.00
21574;BME280;10948;48.706;9.258;2023-02-17T07:23:15;98615.88;;;9.41;100.00
21574;BME280;10948;48.706;9.258;2023-02-17T07:25:42;98615.72;;;9.44;100.00
21574;BME280;10948;48.706;9.258;2023-02-17T07:28:07;98614.69;;;9.48;100.00
21574;BME280;10948;48.706;9.258;2023-02-17T07:30:37;98614.09;;;9.61;100.00
21574;BME280;10948;48.706;9.258;2023-02-17T07:33:02;98617.91;;;9.73;100.00
21574;BME280;10948;48.706;9.258;2023-02-17T07:35:28;98618.97;;;9.89;100.00
21574;BME280;10948;48.706;9.258;2023-02-17T07:37:55;98620.94;;;10.02;100.00
21574;BME280;10948;48.706;9.258;2023-02-17T07:40:21;98631.81;;;10.12;100.00
21574;BME280;10948;48.706;9.258;2023-02-17T07:42:46;98628.84;;;10.21;100.00
21574;BME280;10948;48.706;9.258;2023-02-17T07:45:11;98622.66;;;10.23;100.00
21574;BME280;10948;48.706;9.258;2023-02-17T07:47:37;98621.47;;;10.30;100.00
21574;BME280;10948;48.706;9.258;2023-02-17T07:50:02;98623.56;;;10.59;100.00
21574;BME280;10948;48.706;9.258;2023-02-17T07:52:27;98606.09;;;10.61;100.00
21574;BME280;10948;48.706;9.258;2023-02-17T07:54:52;98617.34;;;10.80;100.00
21574;BME280;10948;48.706;9.258;2023-02-17T07:57:18;98617.22;;;10.83;100.00
21574;BME280;10948;48.706;9.258;2023-02-17T07:59:44;98622.13;;;10.89;100.00
21574;BME280;10948;48.706;9.258;2023-02-17T08:02:10;98621.50;;;10.84;100.00
21574;BME280;10948;48.706;9.258;2023-02-17T08:04:36;98618.75;;;10.87;100.00
21574;BME280;10948;48.706;9.258;2023-02-17T08:07:01;98626.09;;;10.96;100.00
21574;BME280;10948;48.706;9.258;2023-02-17T08:09:27;98627.59;;;11.01;100.00
21574;BME280;10948;48.706;9.258;2023-02-17T08:12:15;98638.84;;;11.02;100.00
21574;BME280;10948;48.706;9.258;2023-02-17T08:14:59;98633.94;;;10.96;100.00
21574;BME280;10948;48.706;9.258;2023-02-17T08:17:26;98639.28;;;10.93;100.00
21574;BME280;10948;48.706;9.258;2023-02-17T08:19:51;98635.75;;;10.94;100.00
21574;BME280;10948;48.706;9.258;2023-02-17T08:22:16;98628.59;;;10.99;100.00
21574;BME280;10948;48.706;9.258;2023-02-17T08:24:42;98625.53;;;11.08;100.00
21574;BME280;10948;48.706;9.258;2023-02-17T08:27:07;98635.25;;;11.57;100.00
21574;BME280;10948;48.706;9.258;2023-02-17T08:29:33;98636.25;;;12.21;100.00
21574;BME280;10948;48.706;9.258;2023-02-17T08:31:58;98627.25;;;12.59;99.51
21574;BME280;10948;48.706;9.258;2023-02-17T08:34:23;98632.03;;;12.82;97.06
21574;BME280;10948;48.706;9.258;2023-02-17T08:36:49;98622.88;;;13.21;96.36
21574;BME280;10948;48.706;9.258;2023-02-17T08:39:15;98633.31;;;13.21;94.22
21574;BME280;10948;48.706;9.258;2023-02-17T08:41:41;98621.00;;;13.08;94.30
21574;BME280;10948;48.706;9.258;2023-02-17T08:44:10;98638.06;;;12.99;95.05
21574;BME280;10948;48.706;9.258;2023-02-17T08:46:36;98628.22;;;13.34;93.90
21574;BME280;10948;48.706;9.258;2023-02-17T08:49:03;98626.25;;;13.08;93.41
21574;BME280;10948;48.706;9.258;2023-02-17T08:51:28;98629.28;;;12.85;96.83
21574;BME280;10948;48.706;9.258;2023-02-17T08:53:55;98614.19;;;12.59;98.65
21574;BME280;10948;48.706;9.258;2023-02-17T08:56:21;98620.16;;;12.92;98.06
21574;BME280;10948;48.706;9.258;2023-02-17T08:58:47;98622.72;;;13.09;96.61
21574;BME280;10948;48.706;9.258;2023-02-17T09:01:13;98620.91;;;13.84;92.31
21574;BME280;10948;48.706;9.258;2023-02-17T09:03:38;98611.31;;;14.95;85.78
21574;BME280;10948;48.706;9.258;2023-02-17T09:06:04;98620.19;;;14.66;81.58
21574;BME280;10948;48.706;9.258;2023-02-17T09:08:30;98616.66;;;13.38;88.87
21574;BME280;10948;48.706;9.258;2023-02-17T09:10:55;98619.94;;;13.12;93.86
21574;BME280;10948;48.706;9.258;2023-02-17T09:13:21;98624.53;;;12.91;97.05
21574;BME280;10948;48.706;9.258;2023-02-17T09:15:47;98626.41;;;12.74;100.00
21574;BME280;10948;48.706;9.258;2023-02-17T09:18:13;98626.06;;;12.80;100.00
21574;BME280;10948;48.706;9.258;2023-02-17T09:20:39;98620.13;;;12.45;100.00
21574;BME280;10948;48.706;9.258;2023-02-17T09:23:04;98619.63;;;12.39;100.00
21574;BME280;10948;48.706;9.258;2023-02-17T09:25:30;98612.41;;;12.44;100.00
21574;BME280;10948;48.706;9.258;2023-02-17T09:27:56;98621.97;;;12.28;100.00
21574;BME280;10948;48.706;9.258;2023-02-17T09:30:22;98617.25;;;12.19;100.00
21574;BME280;10948;48.706;9.258;2023-02-17T09:32:48;98616.31;;;12.20;100.00
21574;BME280;10948;48.706;9.258;2023-02-17T09:35:14;98613.72;;;12.20;100.00
21574;BME280;10948;48.706;9.258;2023-02-17T09:37:40;98620.16;;;12.13;100.00
21574;BME280;10948;48.706;9.258;2023-02-17T09:40:06;98624.22;;;12.18;100.00
21574;BME280;10948;48.706;9.258;2023-02-17T09:42:31;98621.94;;;12.12;100.00
21574;BME280;10948;48.706;9.258;2023-02-17T09:45:00;98619.41;;;12.11;100.00
21574;BME280;10948;48.706;9.258;2023-02-17T09:47:33;98626.47;;;12.09;100.00
21574;BME280;10948;48.706;9.258;2023-02-17T09:50:00;98619.41;;;12.11;100.00
21574;BME280;10948;48.706;9.258;2023-02-17T09:52:28;98641.97;;;12.12;100.00
21574;BME280;10948;48.706;9.258;2023-02-17T09:55:00;98659.00;;;12.19;100.00
21574;BME280;10948;48.706;9.258;2023-02-17T09:57:29;98656.88;;;12.10;100.00
21574;BME280;10948;48.706;9.258;2023-02-17T10:00:12;98660.53;;;12.23;100.00
21574;BME280;10948;48.706;9.258;2023-02-17T10:02:46;98651.13;;;12.36;100.00
21574;BME280;10948;48.706;9.258;2023-02-17T10:05:17;98663.84;;;12.09;100.00
21574;BME280;10948;48.706;9.258;2023-02-17T10:07:56;98657.47;;;12.15;100.00
21574;BME280;10948;48.706;9.258;2023-02-17T10:10:34;98663.34;;;12.35;100.00
21574;BME280;10948;48.706;9.258;2023-02-17T10:13:02;98677.38;;;12.33;100.00
21574;BME280;10948;48.706;9.258;2023-02-17T10:15:39;98670.03;;;12.72;100.00
21574;BME280;10948;48.706;9.258;2023-02-17T10:18:14;98662.88;;;13.37;100.00
21574;BME280;10948;48.706;9.258;2023-02-17T10:20:43;98659.66;;;14.21;95.80
21574;BME280;10948;48.706;9.258;2023-02-17T10:23:16;98642.91;;;14.09;95.41
21574;BME280;10948;48.706;9.258;2023-02-17T10:30:58;98658.59;;;13.05;100.00
21574;BME280;10948;48.706;9.258;2023-02-17T10:35:58;98653.75;;;12.99;100.00
21574;BME280;10948;48.706;9.258;2023-02-17T10:40:57;98660.81;;;13.13;100.00
21574;BME280;10948;48.706;9.258;2023-02-17T10:43:25;98651.34;;;13.71;100.00
21574;BME280;10948;48.706;9.258;2023-02-17T10:45:54;98645.94;;;14.31;98.01
21574;BME280;10948;48.706;9.258;2023-02-17T10:48:21;98642.97;;;14.08;97.17
21574;BME280;10948;48.706;9.258;2023-02-17T10:50:49;98631.75;;;13.92;98.00
21574;BME280;10948;48.706;9.258;2023-02-17T10:56:02;98614.53;;;15.78;87.72
21574;BME280;10948;48.706;9.258;2023-02-17T11:01:27;98613.84;;;15.49;86.07
21574;BME280;10948;48.706;9.258;2023-02-17T11:03:59;98618.56;;;15.18;87.99
21574;BME280;10948;48.706;9.258;2023-02-17T11:06:25;98615.78;;;15.07;89.51
21574;BME280;10948;48.706;9.258;2023-02-17T11:08:51;98616.13;;;14.88;90.06
21574;BME280;10948;48.706;9.258;2023-02-17T11:11:24;98623.69;;;14.93;90.91
21574;BME280;10948;48.706;9.258;2023-02-17T11:13:56;98619.03;;;14.84;91.56
21574;BME280;10948;48.706;9.258;2023-02-17T11:16:33;98616.63;;;14.67;94.03
21574;BME280;10948;48.706;9.258;2023-02-17T11:18:59;98631.03;;;14.60;94.91
21574;BME280;10948;48.706;9.258;2023-02-17T11:21:26;98616.09;;;14.48;95.49
21574;BME280;10948;48.706;9.258;2023-02-17T11:23:57;98612.78;;;14.58;95.11
21574;BME280;10948;48.706;9.258;2023-02-17T11:26:24;98608.72;;;14.81;93.96
21574;BME280;10948;48.706;9.258;2023-02-17T11:28:49;98608.16;;;14.90;94.24
21574;BME280;10948;48.706;9.258;2023-02-17T11:31:28;98599.88;;;15.10;92.62
21574;BME280;10948;48.706;9.258;2023-02-17T11:33:53;98598.44;;;15.45;90.76
21574;BME280;10948;48.706;9.258;2023-02-17T11:36:23;98594.88;;;15.19;90.74
21574;BME280;10948;48.706;9.258;2023-02-17T11:38:49;98598.59;;;15.03;92.93
21574;BME280;10948;48.706;9.258;2023-02-17T11:41:15;98590.66;;;14.90;93.60
21574;BME280;10948;48.706;9.258;2023-02-17T11:46:46;98582.91;;;15.28;93.43
21574;BME280;10948;48.706;9.258;2023-02-17T11:49:33;98575.03;;;14.89;94.75
21574;BME280;10948;48.706;9.258;2023-02-17T11:54:42;98586.28;;;14.22;99.73
21574;BME280;10948;48.706;9.258;2023-02-17T11:57:16;98584.38;;;14.10;100.00
21574;BME280;10948;48.706;9.258;2023-02-17T12:02:16;98586.69;;;14.01;100.00
21574;BME280;10948;48.706;9.258;2023-02-17T12:07:30;98594.66;;;14.13;100.00
21574;BME280;10948;48.706;9.258;2023-02-17T12:10:09;98599.25;;;14.10;100.00
21574;BME280;10948;48.706;9.258;2023-02-17T12:12:50;98599.25;;;14.10;100.00
21574;BME280;10948;48.706;9.258;2023-02-17T12:33:25;98591.44;;;14.24;100.00
21574;BME280;10948;48.706;9.258;2023-02-17T12:35:54;98594.78;;;14.26;100.00
21574;BME280;10948;48.706;9.258;2023-02-17T12:38:30;98593.75;;;14.28;100.00
21574;BME280;10948;48.706;9.258;2023-02-17T12:41:02;98602.06;;;14.21;100.00
21574;BME280;10948;48.706;9.258;2023-02-17T12:43:46;98595.78;;;14.09;100.00
21574;BME280;10948;48.706;9.258;2023-02-17T12:46:18;98592.00;;;14.29;100.00
21574;BME280;10948;48.706;9.258;2023-02-17T12:51:13;98584.03;;;14.30;100.00
21574;BME280;10948;48.706;9.258;2023-02-17T12:53:43;98585.94;;;14.55;100.00
21574;BME280;10948;48.706;9.258;2023-02-17T12:56:53;98579.22;;;14.65;100.00
21574;BME280;10948;48.706;9.258;2023-02-17T12:59:00;98572.31;;;14.50;100.00
21574;BME280;10948;48.706;9.258;2023-02-17T13:01:30;98580.72;;;14.41;100.00
21574;BME280;10948;48.706;9.258;2023-02-17T13:03:58;98576.16;;;14.44;100.00
21574;BME280;10948;48.706;9.258;2023-02-17T13:08:55;98582.38;;;14.70;99.59
21574;BME280;10948;48.706;9.258;2023-02-17T13:11:26;98589.66;;;14.79;99.95
21574;BME280;10948;48.706;9.258;2023-02-17T13:13:51;98589.06;;;14.47;100.00
21574;BME280;10948;48.706;9.258;2023-02-17T13:16:17;98591.66;;;14.61;99.74
21574;BME280;10948;48.706;9.258;2023-02-17T13:18:43;98586.91;;;14.40;100.00
21574;BME280;10948;48.706;9.258;2023-02-17T13:23:41;98594.22;;;14.21;100.00
21574;BME280;10948;48.706;9.258;2023-02-17T13:26:10;98598.31;;;13.97;100.00
21574;BME280;10948;48.706;9.258;2023-02-17T13:28:37;98591.94;;;14.15;100.00
21574;BME280;10948;48.706;9.258;2023-02-17T13:31:43;98584.84;;;14.17;100.00
21574;BME280;10948;48.706;9.258;2023-02-17T13:33:55;98596.47;;;14.27;100.00
21574;BME280;10948;48.706;9.258;2023-02-17T13:38:56;98587.94;;;14.23;100.00
21574;BME280;10948;48.706;9.258;2023-02-17T13:41:24;98583.75;;;14.21;100.00
21574;BME280;10948;48.706;9.258;2023-02-17T13:43:50;98591.06;;;14.30;100.00
21574;BME280;10948;48.706;9.258;2023-02-17T13:46:19;98587.22;;;14.21;100.00
21574;BME280;10948;48.706;9.258;2023-02-17T13:48:44;98578.91;;;14.29;100.00
21574;BME280;10948;48.706;9.258;2023-02-17T13:51:23;98585.25;;;14.25;100.00
21574;BME280;10948;48.706;9.258;2023-02-17T13:53:48;98587.13;;;14.37;100.00
21574;BME280;10948;48.706;9.258;2023-02-17T13:58:48;98573.44;;;14.46;100.00
21574;BME280;10948;48.706;9.258;2023-02-17T14:01:15;98575.00;;;14.62;100.00
21574;BME280;10948;48.706;9.258;2023-02-17T14:03:44;98568.41;;;15.10;100.00
21574;BME280;10948;48.706;9.258;2023-02-17T14:11:49;98562.88;;;14.47;100.00
21574;BME280;10948;48.706;9.258;2023-02-17T14:14:15;98568.78;;;14.37;100.00
21574;BME280;10948;48.706;9.258;2023-02-17T14:16:41;98558.81;;;14.70;100.00
21574;BME280;10948;48.706;9.258;2023-02-17T14:21:37;98562.97;;;14.46;100.00
21574;BME280;10948;48.706;9.258;2023-02-17T14:24:03;98560.09;;;14.77;100.00
21574;BME280;10948;48.706;9.258;2023-02-17T14:26:36;98544.03;;;14.69;100.00
21574;BME280;10948;48.706;9.258;2023-02-17T14:29:06;98554.56;;;14.81;100.00
21574;BME280;10948;48.706;9.258;2023-02-17T14:31:39;98551.44;;;15.28;100.00